»·PEaware :: PKW3230 KPHX-KTUS

PKW3230 :: KPHX-KTUS

FLIGHT INFORMATION

Flight Status: Arrived
Operator: Unknown
More flights by this operator :: More flights under this callsign
Pilot: Anonymous 44948 (44948)
Aircraft: Unknown
(QX)
More flights by this aircraft type
Origin: KPHX Phoenix Sky Harbor Intl
United States
Destination: KTUS Tucson Intl
United States
More flights between these airports :: More routes between these airports
Route: TFD4 TFD DINGO5
File this flight plan on PilotEdge
Remarks: RMK / SIMBRIEF
Altitude:
(Current/Filed)
13,000ft
Speed:
(Current/Filed)
286kts
Departed: 17-Aug-23 02:24 PM
Arrived: 17-Aug-23 03:14 PM
Distance/Time
Traveled:
95nm/0:50
Distance/Time
To Go:
Arrived

Flight Plot

Page will automatically refresh every two minutes.

Flight plan parsing failed; only flown route is shown


Map Options




Map Legend


Flown Route
Filed Route
Departure Airport
Arrival Airport
Navaid (VOR, NDB)
Fix

Horizontal Profiles

Position Reports

Time Latitude Longitude Heading Altitude Ground
Speed
17-Aug-23 14:02 33.425075 -112.016538 90 1113ft 0kts
17-Aug-23 14:03 33.425075 -112.016538 90 1113ft 0kts
17-Aug-23 14:04 33.425075 -112.016538 90 1113ft 0kts
17-Aug-23 14:05 33.425075 -112.016538 90 1113ft 0kts
17-Aug-23 14:06 33.425228 -112.016505 317 1113ft 0kts
17-Aug-23 14:07 33.425228 -112.016505 317 1113ft 0kts
17-Aug-23 14:08 33.425228 -112.016505 317 1113ft 0kts
17-Aug-23 14:09 33.425228 -112.016505 317 1113ft 0kts
17-Aug-23 14:10 33.425228 -112.016505 317 1113ft 0kts
17-Aug-23 14:11 33.425813 -112.016881 340 1113ft 5kts
17-Aug-23 14:12 33.427329 -112.017314 351 1113ft 5kts
17-Aug-23 14:13 33.427766 -112.018997 267 1113ft 5kts
17-Aug-23 14:14 33.427746 -112.023008 270 1113ft 14kts
17-Aug-23 14:15 33.427782 -112.026137 266 1111ft 6kts
17-Aug-23 14:16 33.428212 -112.026923 354 1110ft 6kts
17-Aug-23 14:17 33.428815 -112.026495 132 1110ft 1kts
17-Aug-23 14:18 33.429455 -112.025887 200 1111ft 3kts
17-Aug-23 14:19 33.429869 -112.025135 300 1113ft 0kts
17-Aug-23 14:20 33.429902 -112.025260 279 1113ft 0kts
17-Aug-23 14:21 33.429922 -112.025598 268 1112ft 0kts
17-Aug-23 14:22 33.429931 -112.026026 270 1111ft 5kts
17-Aug-23 14:23 33.428844 -112.021353 89 1113ft 117kts
17-Aug-23 14:24 33.430258 -111.970513 85 4574ft 159kts
17-Aug-23 14:25 33.435217 -111.899768 85 5326ft 248kts
17-Aug-23 14:26 33.440973 -111.816626 85 7059ft 247kts
17-Aug-23 14:27 33.437527 -111.737081 109 7997ft 239kts
17-Aug-23 14:28 33.415559 -111.664131 121 7992ft 230kts
17-Aug-23 14:29 33.370676 -111.682152 240 8693ft 207kts
17-Aug-23 14:30 33.343413 -111.739185 240 9871ft 191kts
17-Aug-23 14:31 33.317623 -111.793141 240 11061ft 184kts
17-Aug-23 14:32 33.292656 -111.845378 240 12251ft 179kts
17-Aug-23 14:33 33.267661 -111.897659 240 13005ft 196kts
17-Aug-23 14:34 33.238627 -111.958268 237 13001ft 219kts
17-Aug-23 14:35 33.180296 -111.969959 180 13000ft 224kts
17-Aug-23 14:36 33.118004 -111.969709 169 12994ft 225kts
17-Aug-23 14:37 33.056828 -111.954526 168 13000ft 225kts
17-Aug-23 14:38 32.995719 -111.939346 168 13000ft 225kts
17-Aug-23 14:39 32.934598 -111.924155 168 13000ft 225kts
17-Aug-23 14:40 32.884523 -111.884059 133 13000ft 225kts
17-Aug-23 14:41 32.841820 -111.829894 133 13000ft 225kts
17-Aug-23 14:42 32.791280 -111.789183 160 13001ft 225kts
17-Aug-23 14:43 32.732617 -111.763992 160 13000ft 225kts
17-Aug-23 14:44 32.673710 -111.738691 159 13000ft 225kts
17-Aug-23 14:45 32.614918 -111.713433 159 13000ft 225kts
17-Aug-23 14:46 32.554131 -111.687300 159 12419ft 241kts
17-Aug-23 14:47 32.502193 -111.644850 92 11702ft 245kts
17-Aug-23 14:48 32.518209 -111.571116 122 11026ft 244kts
17-Aug-23 14:49 32.477283 -111.510917 128 10998ft 230kts
17-Aug-23 14:50 32.437904 -111.453309 128 10173ft 218kts
17-Aug-23 14:51 32.400276 -111.398255 128 9167ft 213kts
17-Aug-23 14:52 32.365543 -111.347441 129 8995ft 185kts
17-Aug-23 14:53 32.333369 -111.300346 129 9008ft 199kts
17-Aug-23 14:54 32.295763 -111.245217 129 8574ft 234kts
17-Aug-23 14:55 32.255923 -111.186860 129 7551ft 210kts
17-Aug-23 14:56 32.216129 -111.143410 138 6993ft 174kts
17-Aug-23 14:57 32.181423 -111.106322 137 6817ft 174kts
17-Aug-23 14:58 32.142441 -111.069289 146 6007ft 176kts
17-Aug-23 14:59 32.100779 -111.035902 145 5052ft 185kts
17-Aug-23 15:00 32.063134 -111.003067 135 4996ft 156kts
17-Aug-23 15:01 32.036039 -110.965764 94 4997ft 149kts
17-Aug-23 15:02 32.064433 -110.934572 18 4930ft 150kts
17-Aug-23 15:03 32.103957 -110.930689 0 5136ft 156kts
17-Aug-23 15:04 32.141408 -110.967408 301 4739ft 184kts
17-Aug-23 15:05 32.147673 -111.018686 332 4458ft 152kts
17-Aug-23 15:06 32.173518 -110.993055 95 4469ft 132kts
17-Aug-23 15:07 32.162302 -110.949534 101 4755ft 142kts
17-Aug-23 15:08 32.140664 -110.910064 139 4821ft 154kts
17-Aug-23 15:09 32.106290 -110.880412 136 4939ft 149kts
17-Aug-23 15:10 32.086142 -110.839784 188 4812ft 157kts
17-Aug-23 15:11 32.088598 -110.885268 285 4650ft 160kts
17-Aug-23 15:12 32.105063 -110.926483 316 2636ft 86kts
17-Aug-23 15:13 32.106015 -110.928932 224 2630ft 0kts
17-Aug-23 15:14 32.106015 -110.928932 224 2630ft 0kts
17-Aug-23 15:15 32.105933 -110.929026 223 2630ft 5kts
17-Aug-23 15:16 32.108148 -110.933304 314 2620ft 26kts
17-Aug-23 15:17 32.113862 -110.939976 314 2603ft 30kts
17-Aug-23 15:18 32.119961 -110.947158 315 2582ft 26kts
17-Aug-23 15:19 32.122197 -110.950580 222 2572ft 1kts
17-Aug-23 15:20 32.121397 -110.951678 39 2570ft 8kts
17-Aug-23 15:21 32.122380 -110.952962 308 2567ft 17kts
17-Aug-23 15:22 32.123575 -110.955751 266 2562ft 2kts
17-Aug-23 15:23 32.123573 -110.955781 266 2562ft 0kts

Navigation Log

Ident Type
Flight plan parsing failed, navigation log unavailable